createdAt,value
2023-01-08T00:01:44.220Z,157661.34
2023-01-08T00:04:11.690Z,157670.63
2023-01-08T00:06:39.340Z,157662.66
2023-01-08T00:09:06.612Z,157646.75
2023-01-08T00:11:34.222Z,157664.00
2023-01-08T00:14:01.534Z,157666.69
2023-01-08T00:16:31.024Z,157657.34
2023-01-08T00:18:58.447Z,157646.75
2023-01-08T00:21:25.955Z,157666.69
2023-01-08T00:23:53.219Z,157669.31
2023-01-08T00:26:21.333Z,157648.06
2023-01-08T00:28:51.750Z,157652.06
2023-01-08T00:31:19.457Z,157669.31
2023-01-08T00:33:46.843Z,157642.72
2023-01-08T00:36:16.948Z,157641.41
2023-01-08T00:38:45.522Z,157634.78
2023-01-08T00:41:14.680Z,157629.44
2023-01-08T00:43:42.236Z,157618.84
2023-01-08T00:46:09.975Z,157608.19
2023-01-08T00:48:39.161Z,157605.56
2023-01-08T00:51:08.427Z,157600.22
2023-01-08T00:53:38.391Z,157576.34
2023-01-08T00:56:10.532Z,157578.97
2023-01-08T00:58:37.986Z,157569.72
2023-01-08T01:01:13.715Z,157559.06
2023-01-08T01:03:41.606Z,157544.44
2023-01-08T01:06:11.030Z,157544.44
2023-01-08T01:08:38.411Z,157543.13
2023-01-08T01:11:10.440Z,157537.81
2023-01-08T01:13:37.807Z,157504.66
2023-01-08T01:16:05.726Z,157520.56
2023-01-08T01:18:33.128Z,157479.41
2023-01-08T01:21:00.642Z,157455.53
2023-01-08T01:23:27.984Z,157447.50
2023-01-08T01:25:55.654Z,157443.56
2023-01-08T01:28:23.020Z,157414.38
2023-01-08T01:30:56.020Z,157386.47
2023-01-08T01:33:23.694Z,157379.84
2023-01-08T01:35:59.735Z,157378.53
2023-01-08T01:38:26.955Z,157375.84
2023-01-08T01:40:54.551Z,157387.81
2023-01-08T01:43:42.184Z,157391.75
2023-01-08T01:46:18.426Z,157374.53
2023-01-08T01:48:46.754Z,157362.56
2023-01-08T01:51:14.573Z,157365.25
2023-01-08T01:53:41.912Z,157355.94
2023-01-08T01:56:09.580Z,157357.25
2023-01-08T01:58:37.277Z,157355.94
2023-01-08T02:01:07.182Z,157363.88
2023-01-08T02:03:37.329Z,157361.25
2023-01-08T02:06:31.851Z,157358.63
2023-01-08T02:09:14.146Z,157361.25
2023-01-08T02:11:49.152Z,157366.56
2023-01-08T02:14:39.575Z,157370.53
2023-01-08T02:17:10.703Z,157363.88
2023-01-08T02:19:42.663Z,157363.88
2023-01-08T02:22:10.277Z,157389.13
2023-01-08T02:24:46.474Z,157387.81
2023-01-08T02:27:15.166Z,157399.75
2023-01-08T02:29:42.837Z,157389.13
2023-01-08T02:32:10.650Z,157395.75
2023-01-08T02:34:37.835Z,157406.34
2023-01-08T02:37:05.637Z,157427.63
2023-01-08T02:39:41.593Z,157415.69
2023-01-08T02:42:11.929Z,157410.34
2023-01-08T02:44:46.399Z,157422.31
2023-01-08T02:47:44.495Z,157446.19
2023-01-08T02:50:32.343Z,157443.56
2023-01-08T02:53:11.880Z,157446.19
2023-01-08T02:55:42.008Z,157436.91
2023-01-08T02:58:09.920Z,157442.25
2023-01-08T03:00:38.178Z,157455.53
2023-01-08T03:03:20.924Z,157423.63
2023-01-08T03:06:11.204Z,157450.19
2023-01-08T03:08:40.421Z,157438.22
2023-01-08T03:11:12.109Z,157419.63
2023-01-08T03:14:01.035Z,157413.00
2023-01-08T03:16:33.638Z,157387.81
2023-01-08T03:19:21.528Z,157385.13
2023-01-08T03:21:50.888Z,157349.28
2023-01-08T03:24:22.850Z,157334.69
2023-01-08T03:26:52.809Z,157330.75
2023-01-08T03:29:22.292Z,157265.69
2023-01-08T03:31:51.156Z,157281.63
2023-01-08T03:34:20.715Z,157255.09
2023-01-08T03:36:50.933Z,157252.47
2023-01-08T03:39:34.529Z,157252.47
2023-01-08T03:42:02.345Z,157223.22
2023-01-08T03:44:29.956Z,157194.03
2023-01-08T03:46:57.786Z,157182.09
2023-01-08T03:49:26.703Z,157188.72
2023-01-08T03:51:53.990Z,157184.78
2023-01-08T03:54:24.897Z,157174.13
2023-01-08T03:56:52.298Z,157174.13
2023-01-08T03:59:19.987Z,157171.50
2023-01-08T04:01:47.371Z,157170.19
2023-01-08T04:04:15.324Z,157160.88
2023-01-08T04:06:42.699Z,157167.50
2023-01-08T04:09:10.519Z,157156.91
2023-01-08T04:11:37.880Z,157171.50
2023-01-08T04:14:05.500Z,157154.28
2023-01-08T04:16:34.851Z,157162.25
2023-01-08T04:19:02.481Z,157163.56
2023-01-08T04:21:29.789Z,157158.22
2023-01-08T04:23:57.672Z,157166.19
2023-01-08T04:26:25.037Z,157171.50
2023-01-08T04:28:52.625Z,157155.59
2023-01-08T04:31:20.052Z,157174.13
2023-01-08T04:33:47.716Z,157179.47
2023-01-08T04:36:15.117Z,157167.50
2023-01-08T04:38:42.694Z,157175.50
2023-01-08T04:41:10.139Z,157192.72
2023-01-08T04:43:37.768Z,157206.00
2023-01-08T04:46:07.816Z,157191.41
2023-01-08T04:48:35.802Z,157180.78
2023-01-08T04:51:04.157Z,157184.78
2023-01-08T04:53:36.006Z,157187.41
2023-01-08T04:56:08.291Z,157186.09
2023-01-08T04:58:36.801Z,157164.88
2023-01-08T05:01:12.735Z,157171.50
2023-01-08T05:03:40.744Z,157183.47
2023-01-08T05:06:08.538Z,157176.81
2023-01-08T05:08:36.203Z,157199.38
2023-01-08T05:11:03.599Z,157194.03
2023-01-08T05:13:31.602Z,157202.00
2023-01-08T05:16:00.423Z,157206.00
2023-01-08T05:18:30.034Z,157220.59
2023-01-08T05:21:02.332Z,157216.59
2023-01-08T05:23:30.962Z,157216.59
2023-01-08T05:26:03.290Z,157204.69
2023-01-08T05:28:31.155Z,157215.28
2023-01-08T05:30:58.524Z,157204.69
2023-01-08T05:33:26.664Z,157202.00
2023-01-08T05:35:54.026Z,157183.47
2023-01-08T05:38:21.655Z,157203.38
2023-01-08T05:40:51.786Z,157180.78
2023-01-08T05:43:19.560Z,157174.13
2023-01-08T05:45:46.884Z,157203.38
2023-01-08T05:48:14.497Z,157179.47
2023-01-08T05:50:41.903Z,157206.00
2023-01-08T05:53:10.202Z,157204.69
2023-01-08T05:55:37.589Z,157212.63
2023-01-08T05:58:06.037Z,157206.00
2023-01-08T06:00:35.269Z,157231.19
2023-01-08T06:03:02.873Z,157204.69
2023-01-08T06:05:31.631Z,157213.94
2023-01-08T06:08:00.035Z,157215.28
2023-01-08T06:10:27.653Z,157202.00
2023-01-08T06:12:56.259Z,157196.72
2023-01-08T06:15:23.427Z,157196.72
2023-01-08T06:17:50.936Z,157192.72
2023-01-08T06:20:18.354Z,157182.09
2023-01-08T06:22:46.185Z,157194.03
2023-01-08T06:25:13.509Z,157179.47
2023-01-08T06:27:41.158Z,157188.72
2023-01-08T06:30:09.978Z,157190.09
2023-01-08T06:32:37.640Z,157191.41
2023-01-08T06:35:05.303Z,157191.41
2023-01-08T06:37:32.843Z,157191.41
2023-01-08T06:40:00.153Z,157182.09
2023-01-08T06:42:27.893Z,157188.72
2023-01-08T06:44:55.215Z,157199.38
2023-01-08T06:47:22.855Z,157203.38
2023-01-08T06:49:49.994Z,157212.63
2023-01-08T06:52:17.845Z,157216.59
2023-01-08T06:54:45.253Z,157200.69
2023-01-08T06:57:13.067Z,157196.72
2023-01-08T06:59:40.370Z,157209.94
2023-01-08T07:02:16.327Z,157192.72
2023-01-08T07:04:43.859Z,157207.31
2023-01-08T07:07:15.367Z,157199.38
2023-01-08T07:09:42.978Z,157196.72
2023-01-08T07:12:14.110Z,157198.03
2023-01-08T07:14:41.523Z,157198.03
2023-01-08T07:17:09.332Z,157176.81
2023-01-08T07:19:36.520Z,157199.38
2023-01-08T07:22:04.240Z,157200.69
2023-01-08T07:24:31.547Z,157200.69
2023-01-08T07:26:59.242Z,157184.78
2023-01-08T07:29:27.287Z,157192.72
2023-01-08T07:31:55.016Z,157182.09
2023-01-08T07:34:22.409Z,157194.03
2023-01-08T07:36:49.930Z,157179.47
2023-01-08T07:39:17.175Z,157188.72
2023-01-08T07:41:44.644Z,157182.09
2023-01-08T07:44:12.653Z,157171.50
2023-01-08T07:46:40.477Z,157171.50
2023-01-08T07:49:07.994Z,157184.78
2023-01-08T07:51:35.571Z,157190.09
2023-01-08T07:54:02.817Z,157195.38
2023-01-08T07:56:30.505Z,157180.78
2023-01-08T07:58:58.184Z,157187.41
2023-01-08T08:01:26.584Z,157180.78
2023-01-08T08:03:53.972Z,157159.56
2023-01-08T08:06:21.530Z,157176.81
2023-01-08T08:08:48.819Z,157176.81
2023-01-08T08:11:16.591Z,157170.19
2023-01-08T08:13:45.283Z,157168.88
2023-01-08T08:16:13.551Z,157175.50
2023-01-08T08:18:41.021Z,157187.41
2023-01-08T08:21:08.767Z,157164.88
2023-01-08T08:23:36.873Z,157183.47
2023-01-08T08:26:05.296Z,157167.50
2023-01-08T08:28:32.565Z,157167.50
2023-01-08T08:31:00.375Z,157184.78
2023-01-08T08:33:27.691Z,157190.09
2023-01-08T08:35:55.351Z,157180.78
2023-01-08T08:38:24.050Z,157199.38
2023-01-08T08:40:51.648Z,157213.94
2023-01-08T08:43:19.398Z,157219.28
2023-01-08T08:45:47.054Z,157207.31
2023-01-08T08:48:16.187Z,157209.94
2023-01-08T08:50:43.899Z,157223.22
2023-01-08T08:53:11.195Z,157239.19
2023-01-08T08:55:38.994Z,157241.81
2023-01-08T08:58:11.457Z,157251.09
2023-01-08T09:00:40.777Z,157255.09
2023-01-08T09:03:14.338Z,157261.72
2023-01-08T09:05:43.350Z,157268.38
2023-01-08T09:08:11.422Z,157271.00
2023-01-08T09:10:41.625Z,157288.28
2023-01-08T09:13:09.183Z,157298.88
2023-01-08T09:15:38.072Z,157294.91
2023-01-08T09:18:05.717Z,157308.13
2023-01-08T09:20:33.483Z,157321.41
2023-01-08T09:23:01.704Z,157345.34
2023-01-08T09:25:30.760Z,157317.47
2023-01-08T09:28:06.816Z,157336.00
2023-01-08T09:30:35.076Z,157347.97
2023-01-08T09:33:03.954Z,157351.97
2023-01-08T09:35:32.859Z,157350.66
2023-01-08T09:38:00.426Z,157369.19
2023-01-08T09:40:57.995Z,157353.28
2023-01-08T09:43:27.000Z,157365.25
2023-01-08T09:46:00.283Z,157387.81
2023-01-08T09:48:31.216Z,157397.09
2023-01-08T09:50:59.216Z,157403.72
2023-01-08T09:53:26.701Z,157409.03
2023-01-08T09:56:18.148Z,157413.00
2023-01-08T09:58:51.170Z,157422.31
2023-01-08T10:01:22.480Z,157426.28
2023-01-08T10:04:07.883Z,157428.97
2023-01-08T10:06:35.555Z,157414.38
2023-01-08T10:09:03.240Z,157451.53
2023-01-08T10:11:44.409Z,157458.16
2023-01-08T10:14:21.800Z,157486.03
2023-01-08T10:16:57.424Z,157487.38
2023-01-08T10:19:25.071Z,157494.00
2023-01-08T10:21:53.564Z,157492.69
2023-01-08T10:24:35.528Z,157488.69
2023-01-08T10:27:13.706Z,157515.25
2023-01-08T10:29:41.852Z,157494.00
2023-01-08T10:32:20.730Z,157487.38
2023-01-08T10:34:50.882Z,157472.75
2023-01-08T10:37:27.200Z,157472.75
2023-01-08T10:39:58.091Z,157450.19
2023-01-08T10:42:26.326Z,157456.84
2023-01-08T10:45:12.090Z,157458.16
2023-01-08T10:47:39.762Z,157456.84
2023-01-08T10:50:22.127Z,157462.13
2023-01-08T10:52:54.823Z,157459.47
2023-01-08T10:55:31.820Z,157486.03
2023-01-08T10:58:00.193Z,157507.28
2023-01-08T11:00:35.405Z,157505.97
2023-01-08T11:03:06.372Z,157515.25
2023-01-08T11:05:38.461Z,157490.00
2023-01-08T11:08:08.782Z,157479.41
2023-01-08T11:10:37.426Z,157478.09
2023-01-08T11:13:07.357Z,157464.81
2023-01-08T11:15:37.835Z,157462.13
2023-01-08T11:18:06.958Z,157468.75
2023-01-08T11:20:34.406Z,157460.78
2023-01-08T11:23:28.380Z,157471.44
2023-01-08T11:26:07.529Z,157479.41
2023-01-08T11:28:42.862Z,157482.03
2023-01-08T11:32:01.453Z,157496.63
2023-01-08T11:34:34.211Z,157476.75
2023-01-08T11:37:26.145Z,157483.34
2023-01-08T11:39:54.301Z,157487.38
2023-01-08T11:42:27.615Z,157476.75
2023-01-08T11:45:13.470Z,157486.03
2023-01-08T11:47:43.425Z,157470.13
2023-01-08T11:50:14.212Z,157475.41
2023-01-08T11:52:47.364Z,157472.75
2023-01-08T11:55:24.279Z,157476.75
2023-01-08T11:58:16.253Z,157463.47
2023-01-08T12:00:53.321Z,157478.09
2023-01-08T12:03:31.393Z,157466.13
2023-01-08T12:06:11.595Z,157480.72
2023-01-08T12:08:38.635Z,157464.81
2023-01-08T12:11:23.409Z,157455.53
2023-01-08T12:13:59.796Z,157458.16
2023-01-08T12:16:40.978Z,157444.88
2023-01-08T12:19:30.437Z,157414.38
2023-01-08T12:22:10.553Z,157439.56
2023-01-08T12:24:42.851Z,157438.22
2023-01-08T12:27:54.514Z,157443.56
2023-01-08T12:30:16.687Z,157435.59
2023-01-08T12:32:49.243Z,157397.09
2023-01-08T12:35:26.506Z,157394.44
2023-01-08T12:38:03.436Z,157377.16
2023-01-08T12:40:36.354Z,157370.53
2023-01-08T12:43:08.052Z,157365.25
2023-01-08T12:45:41.716Z,157362.56
2023-01-08T12:48:21.464Z,157377.16
2023-01-08T12:51:02.487Z,157367.88
2023-01-08T12:53:51.843Z,157389.13
2023-01-08T12:56:32.009Z,157366.56
2023-01-08T12:59:05.196Z,157345.34
2023-01-08T13:01:39.720Z,157332.06
2023-01-08T13:04:09.805Z,157312.13
2023-01-08T13:06:37.315Z,157334.69
2023-01-08T13:09:05.174Z,157326.75
2023-01-08T13:11:34.971Z,157330.75
2023-01-08T13:14:05.908Z,157336.00
2023-01-08T13:16:45.550Z,157365.25
2023-01-08T13:19:26.075Z,157351.97
2023-01-08T13:21:58.662Z,157337.38
2023-01-08T13:24:42.955Z,157332.06
2023-01-08T13:27:30.569Z,157345.34
2023-01-08T13:29:58.452Z,157358.63
2023-01-08T13:32:47.202Z,157355.94
2023-01-08T13:35:14.974Z,157351.97
2023-01-08T13:37:48.207Z,157346.66
2023-01-08T13:40:50.092Z,157342.66
2023-01-08T13:43:20.972Z,157321.41
2023-01-08T13:46:14.042Z,157345.34
2023-01-08T13:48:49.144Z,157332.06
2023-01-08T13:51:34.889Z,157329.41
2023-01-08T13:54:26.850Z,157317.47
2023-01-08T13:56:56.090Z,157316.16
2023-01-08T13:59:26.612Z,157325.41
2023-01-08T14:02:00.223Z,157300.19
2023-01-08T14:04:28.029Z,157308.13
2023-01-08T14:07:14.680Z,157304.19
2023-01-08T14:09:42.019Z,157302.88
2023-01-08T14:12:15.696Z,157312.13
2023-01-08T14:14:54.159Z,157289.59
2023-01-08T14:17:28.306Z,157276.31
2023-01-08T14:19:55.634Z,157280.31
2023-01-08T14:22:36.206Z,157278.94
2023-01-08T14:25:08.005Z,157269.69
2023-01-08T14:27:35.817Z,157257.72
2023-01-08T14:30:15.844Z,157252.47
2023-01-08T14:32:45.036Z,157251.09
2023-01-08T14:35:16.987Z,157253.78
2023-01-08T14:37:44.730Z,157244.44
2023-01-08T14:40:16.324Z,157241.81
2023-01-08T14:42:53.348Z,157244.44
2023-01-08T14:45:23.645Z,157256.41
2023-01-08T14:47:54.643Z,157257.72
2023-01-08T14:50:30.639Z,157237.81
2023-01-08T14:53:10.690Z,157237.81
2023-01-08T14:55:42.695Z,157240.50
2023-01-08T14:58:22.752Z,157212.63
2023-01-08T15:01:15.790Z,157203.38
2023-01-08T15:03:47.533Z,157219.28
2023-01-08T15:06:29.308Z,157215.28
2023-01-08T15:08:57.566Z,157199.38
2023-01-08T15:11:33.341Z,157220.59
2023-01-08T15:14:00.938Z,157209.94
2023-01-08T15:16:30.017Z,157198.03
2023-01-08T15:19:11.918Z,157207.31
2023-01-08T15:21:39.829Z,157198.03
2023-01-08T15:24:07.867Z,157211.31
2023-01-08T15:26:35.308Z,157191.41
2023-01-08T15:29:06.092Z,157188.72
2023-01-08T15:31:46.852Z,157170.19
2023-01-08T15:34:17.373Z,157151.59
2023-01-08T15:36:46.845Z,157179.47
2023-01-08T15:39:14.515Z,157168.88
2023-01-08T15:42:00.292Z,157162.25
2023-01-08T15:44:27.984Z,157176.81
2023-01-08T15:46:55.797Z,157158.22
2023-01-08T15:49:23.506Z,157182.09
2023-01-08T15:51:52.496Z,157188.72
2023-01-08T15:54:23.219Z,157192.72
2023-01-08T15:56:50.721Z,157168.88
2023-01-08T15:59:18.225Z,157191.41
2023-01-08T16:01:45.904Z,157187.41
2023-01-08T16:04:13.671Z,157182.09
2023-01-08T16:06:42.003Z,157170.19
2023-01-08T16:09:09.737Z,157148.97
2023-01-08T16:11:36.947Z,157156.91
2023-01-08T16:14:04.621Z,157160.88
2023-01-08T16:16:31.945Z,157174.13
2023-01-08T16:18:59.787Z,157174.13
2023-01-08T16:21:27.019Z,157159.56
2023-01-08T16:23:54.624Z,157148.97
2023-01-08T16:26:21.867Z,157178.13
2023-01-08T16:28:49.736Z,157164.88
2023-01-08T16:31:16.974Z,157155.59
2023-01-08T16:33:44.691Z,157172.81
2023-01-08T16:36:12.210Z,157159.56
2023-01-08T16:38:39.891Z,157147.66
2023-01-08T16:41:07.262Z,157179.47
2023-01-08T16:43:40.801Z,157155.59
2023-01-08T16:46:12.725Z,157163.56
2023-01-08T16:48:42.009Z,157168.88
2023-01-08T16:51:09.874Z,157175.50
2023-01-08T16:53:37.905Z,157164.88
2023-01-08T16:56:05.901Z,157164.88
2023-01-08T16:58:35.124Z,157188.72
2023-01-08T17:01:07.126Z,157188.72
2023-01-08T17:03:35.146Z,157180.78
2023-01-08T17:06:07.989Z,157192.72
2023-01-08T17:08:45.324Z,157178.13
2023-01-08T17:11:15.013Z,157190.09
2023-01-08T17:13:43.576Z,157187.41
2023-01-08T17:16:12.690Z,157180.78
2023-01-08T17:18:40.905Z,157194.03
2023-01-08T17:21:09.625Z,157182.09
2023-01-08T17:23:37.755Z,157188.72
2023-01-08T17:26:11.349Z,157179.47
2023-01-08T17:28:39.240Z,157188.72
2023-01-08T17:31:11.862Z,157186.09
2023-01-08T17:33:39.620Z,157191.41
2023-01-08T17:36:14.152Z,157187.41
2023-01-08T17:38:45.110Z,157196.72
2023-01-08T17:41:32.949Z,157187.41
2023-01-08T17:44:00.733Z,157194.03
2023-01-08T17:46:28.480Z,157187.41
2023-01-08T17:48:56.090Z,157191.41
2023-01-08T17:51:23.550Z,157191.41
2023-01-08T17:53:51.152Z,157209.94
2023-01-08T17:56:18.475Z,157199.38
2023-01-08T17:58:49.478Z,157207.31
2023-01-08T18:01:17.400Z,157203.38
2023-01-08T18:03:45.668Z,157216.59
2023-01-08T18:06:13.380Z,157217.94
2023-01-08T18:08:41.718Z,157213.94
2023-01-08T18:11:10.305Z,157207.31
2023-01-08T18:13:38.535Z,157212.63
2023-01-08T18:16:10.931Z,157206.00
2023-01-08T18:18:39.661Z,157192.72
2023-01-08T18:21:07.594Z,157207.31
2023-01-08T18:23:35.290Z,157216.59
2023-01-08T18:26:12.228Z,157219.28
2023-01-08T18:28:40.500Z,157219.28
2023-01-08T18:31:09.606Z,157219.28
2023-01-08T18:33:37.800Z,157208.63
2023-01-08T18:36:09.636Z,157213.94
2023-01-08T18:38:47.420Z,157221.91
2023-01-08T18:41:36.752Z,157204.69
2023-01-08T18:44:06.291Z,157224.59
2023-01-08T18:46:33.787Z,157229.84
2023-01-08T18:49:01.577Z,157244.44
2023-01-08T18:51:28.838Z,157235.19
2023-01-08T18:53:56.537Z,157257.72
2023-01-08T18:56:32.117Z,157268.38
2023-01-08T18:59:00.006Z,157237.81
2023-01-08T19:01:27.917Z,157251.09
2023-01-08T19:03:56.092Z,157268.38
2023-01-08T19:06:24.131Z,157271.00
2023-01-08T19:08:52.338Z,157271.00
2023-01-08T19:11:19.915Z,157276.31
2023-01-08T19:13:47.824Z,157278.94
2023-01-08T19:16:17.463Z,157288.28
2023-01-08T19:18:45.076Z,157284.28
2023-01-08T19:21:14.887Z,157261.72
2023-01-08T19:23:42.814Z,157281.63
2023-01-08T19:26:10.370Z,157263.03
2023-01-08T19:28:38.085Z,157255.09
2023-01-08T19:31:06.878Z,157253.78
2023-01-08T19:33:35.950Z,157264.34
2023-01-08T19:36:08.795Z,157259.03
2023-01-08T19:38:36.717Z,157259.03
2023-01-08T19:41:04.137Z,157265.69
2023-01-08T19:43:43.866Z,157278.94
2023-01-08T19:46:15.712Z,157268.38
2023-01-08T19:48:44.321Z,157261.72
2023-01-08T19:51:12.664Z,157261.72
2023-01-08T19:53:40.632Z,157280.31
2023-01-08T19:56:10.751Z,157284.28
2023-01-08T19:58:38.932Z,157308.13
2023-01-08T20:01:21.018Z,157297.56
2023-01-08T20:03:49.332Z,157324.09
2023-01-08T20:06:20.080Z,157346.66
2023-01-08T20:08:53.423Z,157329.41
2023-01-08T20:11:22.373Z,157316.16
2023-01-08T20:13:51.651Z,157310.81
2023-01-08T20:16:20.966Z,157305.50
2023-01-08T20:18:49.090Z,157313.47
2023-01-08T20:21:24.282Z,157312.13
2023-01-08T20:24:01.749Z,157314.78
2023-01-08T20:26:29.971Z,157313.47
2023-01-08T20:28:58.499Z,157306.81
2023-01-08T20:31:29.727Z,157297.56
2023-01-08T20:33:59.364Z,157298.88
2023-01-08T20:36:29.732Z,157297.56
2023-01-08T20:39:00.181Z,157304.19
2023-01-08T20:41:27.934Z,157297.56
2023-01-08T20:43:58.865Z,157290.91
2023-01-08T20:46:28.741Z,157288.28
2023-01-08T20:48:59.926Z,157289.59
2023-01-08T20:51:27.614Z,157289.59
2023-01-08T20:53:55.695Z,157300.19
2023-01-08T20:56:23.030Z,157281.63
2023-01-08T20:58:50.723Z,157285.59
2023-01-08T21:01:23.047Z,157276.31
2023-01-08T21:03:54.571Z,157276.31
2023-01-08T21:06:23.941Z,157286.91
2023-01-08T21:08:53.925Z,157277.63
2023-01-08T21:11:22.257Z,157305.50
2023-01-08T21:13:51.155Z,157297.56
2023-01-08T21:16:22.996Z,157305.50
2023-01-08T21:18:51.377Z,157300.19
2023-01-08T21:21:40.311Z,157257.72
2023-01-08T21:24:10.193Z,157302.88
2023-01-08T21:26:38.136Z,157304.19
2023-01-08T21:29:07.032Z,157304.19
2023-01-08T21:31:35.303Z,157293.53
2023-01-08T21:34:04.151Z,157304.19
2023-01-08T21:36:32.546Z,157281.63
2023-01-08T21:39:01.533Z,157268.38
2023-01-08T21:41:48.481Z,157290.91
2023-01-08T21:44:42.994Z,157286.91
2023-01-08T21:47:13.105Z,157297.56
2023-01-08T21:49:41.332Z,157301.56
2023-01-08T21:52:27.568Z,157293.53
2023-01-08T21:54:56.360Z,157298.88
2023-01-08T21:57:25.596Z,157305.50
2023-01-08T21:59:53.488Z,157298.88
2023-01-08T22:02:23.750Z,157277.63
2023-01-08T22:04:57.143Z,157301.56
2023-01-08T22:07:26.185Z,157293.53
2023-01-08T22:09:55.104Z,157302.88
2023-01-08T22:12:23.489Z,157304.19
2023-01-08T22:14:55.540Z,157305.50
2023-01-08T22:17:24.250Z,157310.81
2023-01-08T22:19:52.478Z,157297.56
2023-01-08T22:22:19.868Z,157314.78
2023-01-08T22:24:47.785Z,157313.47
2023-01-08T22:27:15.243Z,157292.22
2023-01-08T22:29:43.195Z,157318.78
2023-01-08T22:32:10.534Z,157304.19
2023-01-08T22:34:38.293Z,157312.13
2023-01-08T22:37:06.568Z,157322.78
2023-01-08T22:39:34.065Z,157328.06
2023-01-08T22:42:01.821Z,157326.75
2023-01-08T22:44:29.595Z,157334.69
2023-01-08T22:46:59.113Z,157332.06
2023-01-08T22:49:26.965Z,157329.41
2023-01-08T22:52:00.592Z,157340.00
2023-01-08T22:54:28.427Z,157344.00
2023-01-08T22:56:55.724Z,157324.09
2023-01-08T22:59:23.914Z,157322.78
2023-01-08T23:01:51.310Z,157316.16
2023-01-08T23:04:19.291Z,157321.41
2023-01-08T23:06:46.703Z,157322.78
2023-01-08T23:09:14.731Z,157317.47
2023-01-08T23:11:42.543Z,157302.88
2023-01-08T23:14:13.619Z,157298.88
2023-01-08T23:16:40.966Z,157309.50
2023-01-08T23:19:08.786Z,157300.19
2023-01-08T23:21:38.754Z,157324.09
2023-01-08T23:24:08.351Z,157321.41
2023-01-08T23:26:35.677Z,157313.47
2023-01-08T23:29:03.531Z,157301.56
2023-01-08T23:31:32.563Z,157298.88
2023-01-08T23:34:00.297Z,157285.59
2023-01-08T23:36:27.590Z,157300.19
2023-01-08T23:38:56.407Z,157313.47
2023-01-08T23:41:33.107Z,157296.22
2023-01-08T23:44:05.058Z,157302.88
2023-01-08T23:46:32.347Z,157317.47
2023-01-08T23:49:00.020Z,157310.81
2023-01-08T23:51:27.360Z,157325.41
2023-01-08T23:53:55.142Z,157308.13
2023-01-08T23:56:22.722Z,157321.41
2023-01-08T23:58:50.654Z,157322.78
